createdAt,value
2022-11-07T00:04:06.124Z,1.92
2022-11-07T00:09:08.981Z,1.50
2022-11-07T00:14:14.207Z,1.80
2022-11-07T00:19:19.157Z,2.00
2022-11-07T00:24:21.913Z,1.95
2022-11-07T00:34:28.654Z,1.88
2022-11-07T00:39:31.415Z,1.45
2022-11-07T00:49:38.231Z,1.98
2022-11-07T00:54:41.135Z,1.75
2022-11-07T00:59:45.274Z,1.95
2022-11-07T01:05:05.376Z,2.08
2022-11-07T01:10:09.136Z,1.63
2022-11-07T01:15:13.495Z,1.88
2022-11-07T01:20:16.769Z,1.60
2022-11-07T01:25:19.548Z,2.47
2022-11-07T01:30:23.826Z,2.20
2022-11-07T01:35:26.703Z,2.17
2022-11-07T01:40:30.122Z,1.60
2022-11-07T01:45:35.431Z,1.80
2022-11-07T01:50:38.364Z,1.63
2022-11-07T01:55:41.266Z,1.67
2022-11-07T02:00:45.487Z,1.67
2022-11-07T02:05:53.368Z,1.30
2022-11-07T02:11:00.038Z,1.80
2022-11-07T02:16:05.920Z,1.58
2022-11-07T02:21:15.285Z,1.58
2022-11-07T02:26:20.314Z,1.30
2022-11-07T02:31:23.086Z,1.25
2022-11-07T02:41:35.007Z,1.20
2022-11-07T02:46:38.426Z,1.55
2022-11-07T02:51:41.188Z,1.45
2022-11-07T02:56:45.342Z,1.63
2022-11-07T03:01:48.193Z,1.08
2022-11-07T03:06:51.479Z,1.30
2022-11-07T03:11:55.563Z,1.50
2022-11-07T03:16:58.421Z,1.38
2022-11-07T03:22:01.191Z,1.08
2022-11-07T03:32:08.867Z,1.20
2022-11-07T03:37:11.627Z,1.42
2022-11-07T03:47:18.363Z,1.10
2022-11-07T03:52:21.203Z,1.10
2022-11-07T03:57:25.385Z,1.10
2022-11-07T04:02:28.239Z,1.08
2022-11-07T04:07:31.129Z,1.13
2022-11-07T04:13:04.294Z,1.38
2022-11-07T04:18:07.054Z,0.95
2022-11-07T04:23:09.865Z,1.02
2022-11-07T04:33:19.123Z,0.80
2022-11-07T04:38:21.943Z,1.10
2022-11-07T04:43:28.483Z,1.17
2022-11-07T04:48:31.240Z,1.13
2022-11-07T04:53:34.095Z,1.00
2022-11-07T04:58:38.280Z,0.93
2022-11-07T05:03:42.229Z,1.60
2022-11-07T05:08:45.162Z,2.38
2022-11-07T05:18:51.815Z,1.05
2022-11-07T05:28:58.524Z,1.38
2022-11-07T05:34:01.284Z,1.30
2022-11-07T05:44:08.208Z,1.20
2022-11-07T05:49:10.944Z,1.48
2022-11-07T05:59:17.710Z,1.48
2022-11-07T06:04:20.584Z,1.17
2022-11-07T06:09:23.383Z,1.50
2022-11-07T06:14:29.013Z,1.45
2022-11-07T06:19:31.773Z,1.27
2022-11-07T06:29:38.488Z,1.60
2022-11-07T06:34:41.278Z,2.03
2022-11-07T06:39:44.036Z,1.30
2022-11-07T06:49:50.764Z,1.20
2022-11-07T06:59:57.447Z,1.42
2022-11-07T07:05:00.268Z,1.42
2022-11-07T07:10:03.036Z,1.55
2022-11-07T07:20:12.119Z,1.40
2022-11-07T07:25:14.915Z,1.15
2022-11-07T07:30:19.262Z,1.15
2022-11-07T07:35:22.695Z,1.45
2022-11-07T07:40:25.475Z,1.52
2022-11-07T07:45:29.676Z,1.63
2022-11-07T07:50:32.475Z,1.27
2022-11-07T07:55:36.098Z,1.40
2022-11-07T08:00:40.391Z,1.65
2022-11-07T08:05:43.159Z,1.52
2022-11-07T08:15:50.163Z,1.40
2022-11-07T08:20:54.690Z,0.73
2022-11-07T08:25:59.495Z,1.23
2022-11-07T08:31:05.870Z,1.20
2022-11-07T08:36:09.575Z,1.42
2022-11-07T08:41:12.341Z,1.35
2022-11-07T08:46:16.705Z,2.45
2022-11-07T08:51:19.540Z,1.67
2022-11-07T08:56:22.315Z,1.95
2022-11-07T09:01:26.667Z,1.30
2022-11-07T09:06:29.468Z,1.40
2022-11-07T09:11:32.301Z,1.50
2022-11-07T09:16:36.491Z,0.85
2022-11-07T09:21:39.369Z,2.03
2022-11-07T09:26:42.141Z,1.48
2022-11-07T09:31:46.266Z,0.95
2022-11-07T09:36:49.071Z,1.33
2022-11-07T09:42:00.120Z,1.27
2022-11-07T09:47:08.838Z,1.27
2022-11-07T09:52:18.361Z,1.88
2022-11-07T09:57:21.500Z,1.58
2022-11-07T10:02:31.320Z,1.67
2022-11-07T10:07:44.702Z,1.77
2022-11-07T10:13:16.379Z,2.10
2022-11-07T10:18:29.784Z,1.38
2022-11-07T10:23:46.614Z,1.30
2022-11-07T10:28:55.234Z,1.65
2022-11-07T10:34:03.726Z,1.40
2022-11-07T10:39:15.074Z,1.33
2022-11-07T10:44:24.635Z,1.95
2022-11-07T10:49:30.346Z,1.75
2022-11-07T10:54:33.400Z,1.70
2022-11-07T10:59:39.037Z,1.83
2022-11-07T11:04:51.132Z,2.88
2022-11-07T11:09:56.068Z,1.50
2022-11-07T11:15:13.296Z,1.95
2022-11-07T11:20:33.271Z,1.30
2022-11-07T11:25:45.422Z,1.17
2022-11-07T11:30:54.057Z,1.17
2022-11-07T11:36:02.954Z,1.80
2022-11-07T11:41:17.391Z,1.45
2022-11-07T11:46:28.840Z,1.20
2022-11-07T11:51:40.410Z,1.90
2022-11-07T11:56:52.462Z,2.10
2022-11-07T12:02:02.731Z,1.70
2022-11-07T12:07:24.582Z,1.65
2022-11-07T12:12:32.973Z,0.93
2022-11-07T12:17:42.910Z,2.45
2022-11-07T12:22:58.060Z,2.38
2022-11-07T12:28:11.715Z,1.73
2022-11-07T12:33:28.205Z,1.90
2022-11-07T12:38:53.101Z,2.33
2022-11-07T12:44:10.336Z,2.10
2022-11-07T12:49:30.656Z,2.00
2022-11-07T12:54:48.016Z,2.38
2022-11-07T12:59:56.688Z,2.97
2022-11-07T13:05:05.792Z,2.40
2022-11-07T13:10:16.892Z,3.03
2022-11-07T13:15:20.142Z,3.10
2022-11-07T13:20:29.308Z,2.67
2022-11-07T13:25:34.913Z,3.58
2022-11-07T13:30:40.163Z,3.25
2022-11-07T13:35:54.685Z,2.90
2022-11-07T13:41:03.838Z,2.40
2022-11-07T13:46:09.416Z,3.42
2022-11-07T13:51:17.946Z,2.20
2022-11-07T13:56:29.714Z,3.08
2022-11-07T14:01:43.202Z,2.40
2022-11-07T14:06:47.209Z,2.33
2022-11-07T14:11:53.549Z,1.83
2022-11-07T14:17:00.423Z,2.20
2022-11-07T14:22:03.577Z,2.20
2022-11-07T14:27:14.931Z,2.35
2022-11-07T14:32:18.835Z,2.00
2022-11-07T14:37:24.056Z,2.67
2022-11-07T14:42:28.251Z,2.45
2022-11-07T14:47:33.927Z,2.10
2022-11-07T14:52:40.848Z,2.47
2022-11-07T14:57:45.036Z,2.58
2022-11-07T15:02:50.233Z,2.97
2022-11-07T15:07:53.333Z,2.60
2022-11-07T15:12:59.761Z,2.22
2022-11-07T15:18:05.075Z,2.30
2022-11-07T15:23:28.713Z,2.70
2022-11-07T15:28:46.059Z,1.98
2022-11-07T15:33:49.421Z,2.25
2022-11-07T15:38:54.047Z,2.40
2022-11-07T15:43:58.216Z,1.77
2022-11-07T15:49:02.474Z,1.90
2022-11-07T15:54:05.455Z,1.85
2022-11-07T15:59:18.536Z,2.05
2022-11-07T16:04:21.313Z,2.45
2022-11-07T16:09:24.660Z,2.28
2022-11-07T16:14:43.578Z,3.15
2022-11-07T16:19:47.224Z,2.03
2022-11-07T16:24:50.204Z,2.13
2022-11-07T16:29:54.328Z,2.45
2022-11-07T16:34:57.083Z,2.10
2022-11-07T16:39:59.919Z,2.08
2022-11-07T16:45:04.370Z,1.67
2022-11-07T16:50:08.236Z,2.53
2022-11-07T16:55:16.035Z,1.92
2022-11-07T17:00:22.795Z,2.47
2022-11-07T17:05:25.659Z,2.38
2022-11-07T17:10:28.440Z,2.20
2022-11-07T17:15:32.627Z,2.22
2022-11-07T17:20:50.427Z,2.08
2022-11-07T17:25:55.232Z,1.90
2022-11-07T17:31:00.173Z,2.22
2022-11-07T17:36:02.972Z,1.73
2022-11-07T17:41:18.021Z,1.80
2022-11-07T17:46:26.120Z,1.60
2022-11-07T17:51:29.746Z,1.33
2022-11-07T17:56:34.456Z,1.55
2022-11-07T18:01:40.324Z,1.00
2022-11-07T18:06:44.402Z,1.45
2022-11-07T18:11:47.247Z,0.95
2022-11-07T18:16:51.562Z,1.02
2022-11-07T18:21:54.368Z,1.35
2022-11-07T18:26:57.214Z,1.17
2022-11-07T18:32:01.444Z,0.90
2022-11-07T18:37:04.243Z,1.27
2022-11-07T18:42:07.211Z,0.93
2022-11-07T18:47:12.190Z,1.50
2022-11-07T18:52:15.063Z,0.88
2022-11-07T18:57:17.897Z,0.95
2022-11-07T19:02:22.279Z,1.10
2022-11-07T19:07:25.108Z,1.52
2022-11-07T19:12:29.556Z,1.20
2022-11-07T19:17:34.038Z,1.60
2022-11-07T19:22:36.846Z,1.33
2022-11-07T19:27:41.216Z,1.17
2022-11-07T19:32:45.742Z,1.63
2022-11-07T19:37:48.584Z,1.40
2022-11-07T19:42:51.766Z,1.00
2022-11-07T19:47:56.141Z,1.13
2022-11-07T19:52:58.961Z,1.10
2022-11-07T19:58:01.849Z,1.40
2022-11-07T20:03:06.082Z,1.00
2022-11-07T20:08:08.935Z,1.92
2022-11-07T20:13:11.778Z,1.27
2022-11-07T20:18:15.978Z,1.30
2022-11-07T20:23:19.200Z,1.33
2022-11-07T20:28:22.393Z,1.33
2022-11-07T20:33:26.569Z,1.50
2022-11-07T20:38:30.116Z,1.67
2022-11-07T20:43:33.830Z,1.65
2022-11-07T20:48:38.352Z,1.20
2022-11-07T20:53:46.773Z,1.90
2022-11-07T20:58:51.706Z,2.15
2022-11-07T21:03:55.855Z,1.42
2022-11-07T21:08:59.139Z,1.77
2022-11-07T21:14:01.936Z,2.72
2022-11-07T21:19:06.770Z,1.35
2022-11-07T21:24:10.022Z,1.95
2022-11-07T21:29:15.316Z,1.63
2022-11-07T21:34:19.443Z,1.55
2022-11-07T21:39:22.209Z,1.55
2022-11-07T21:44:25.069Z,1.20
2022-11-07T21:49:30.372Z,1.35
2022-11-07T21:54:33.280Z,2.28
2022-11-07T21:59:36.063Z,1.50
2022-11-07T22:04:40.384Z,1.88
2022-11-07T22:09:43.178Z,0.93
2022-11-07T22:14:49.015Z,1.38
2022-11-07T22:19:53.145Z,2.00
2022-11-07T22:24:56.370Z,1.30
2022-11-07T22:30:01.940Z,1.08
2022-11-07T22:35:09.661Z,2.25
2022-11-07T22:40:17.878Z,1.50
2022-11-07T22:45:23.335Z,1.60
2022-11-07T22:50:27.980Z,1.70
2022-11-07T22:55:36.351Z,1.70
2022-11-07T23:00:39.500Z,1.60
2022-11-07T23:05:44.060Z,1.80
2022-11-07T23:10:47.091Z,1.73
2022-11-07T23:15:50.094Z,1.95
2022-11-07T23:21:11.667Z,1.70
2022-11-07T23:26:16.929Z,1.10
2022-11-07T23:31:20.631Z,1.40
2022-11-07T23:36:24.983Z,2.05
2022-11-07T23:41:29.093Z,1.88
2022-11-07T23:46:49.695Z,1.52
2022-11-07T23:51:54.256Z,1.92
2022-11-07T23:56:57.052Z,1.77
